sensor_id;sensor_type;location;lat;lon;timestamp;pressure;altitude;pressure_sealevel;temperature;humidity
71974;BME280;59840;52.122;5.404;2022-11-15T00:00:55;100984.69;;;5.89;98.81
71974;BME280;59840;52.122;5.404;2022-11-15T00:03:24;100990.72;;;5.89;99.18
71974;BME280;59840;52.122;5.404;2022-11-15T00:05:51;100983.44;;;5.91;99.19
71974;BME280;59840;52.122;5.404;2022-11-15T00:08:18;101000.56;;;5.94;99.32
71974;BME280;59840;52.122;5.404;2022-11-15T00:11:00;100996.13;;;5.94;99.26
71974;BME280;59840;52.122;5.404;2022-11-15T00:13:27;100994.09;;;5.96;100.00
71974;BME280;59840;52.122;5.404;2022-11-15T00:16:00;100989.47;;;5.98;99.80
71974;BME280;59840;52.122;5.404;2022-11-15T00:18:27;100991.06;;;5.99;100.00
71974;BME280;59840;52.122;5.404;2022-11-15T00:20:54;100992.66;;;6.00;100.00
71974;BME280;59840;52.122;5.404;2022-11-15T00:23:21;100982.00;;;6.02;100.00
71974;BME280;59840;52.122;5.404;2022-11-15T00:25:55;100979.97;;;6.04;100.00
71974;BME280;59840;52.122;5.404;2022-11-15T00:28:22;100977.34;;;6.04;100.00
71974;BME280;59840;52.122;5.404;2022-11-15T00:30:48;100975.31;;;6.06;100.00
71974;BME280;59840;52.122;5.404;2022-11-15T00:33:15;100980.13;;;6.09;100.00
71974;BME280;59840;52.122;5.404;2022-11-15T00:35:41;100980.94;;;6.10;100.00
71974;BME280;59840;52.122;5.404;2022-11-15T00:38:08;100978.91;;;6.12;100.00
71974;BME280;59840;52.122;5.404;2022-11-15T00:40:34;100979.50;;;6.14;100.00
71974;BME280;59840;52.122;5.404;2022-11-15T00:43:01;100976.88;;;6.14;100.00
71974;BME280;59840;52.122;5.404;2022-11-15T00:45:27;100985.94;;;6.18;100.00
71974;BME280;59840;52.122;5.404;2022-11-15T00:47:53;100975.25;;;6.19;100.00
71974;BME280;59840;52.122;5.404;2022-11-15T00:50:20;100976.06;;;6.20;100.00
71974;BME280;59840;52.122;5.404;2022-11-15T00:52:47;100971.41;;;6.22;100.00
71974;BME280;59840;52.122;5.404;2022-11-15T00:55:16;100969.13;;;6.25;100.00
71974;BME280;59840;52.122;5.404;2022-11-15T00:57:43;100966.31;;;6.27;100.00
71974;BME280;59840;52.122;5.404;2022-11-15T01:00:11;100959.44;;;6.26;100.00
71974;BME280;59840;52.122;5.404;2022-11-15T01:02:37;100958.03;;;6.30;100.00
71974;BME280;59840;52.122;5.404;2022-11-15T01:05:04;100948.94;;;6.32;100.00
71974;BME280;59840;52.122;5.404;2022-11-15T01:07:31;100945.09;;;6.35;100.00
71974;BME280;59840;52.122;5.404;2022-11-15T01:09:57;100948.28;;;6.37;100.00
71974;BME280;59840;52.122;5.404;2022-11-15T01:12:24;100946.25;;;6.39;100.00
71974;BME280;59840;52.122;5.404;2022-11-15T01:14:50;100951.28;;;6.41;100.00
71974;BME280;59840;52.122;5.404;2022-11-15T01:17:17;100947.22;;;6.45;100.00
71974;BME280;59840;52.122;5.404;2022-11-15T01:19:43;100940.75;;;6.47;100.00
71974;BME280;59840;52.122;5.404;2022-11-15T01:22:10;100938.50;;;6.51;100.00
71974;BME280;59840;52.122;5.404;2022-11-15T01:24:36;100939.69;;;6.55;100.00
71974;BME280;59840;52.122;5.404;2022-11-15T01:27:03;100946.34;;;6.57;100.00
71974;BME280;59840;52.122;5.404;2022-11-15T01:29:29;100936.41;;;6.59;100.00
71974;BME280;59840;52.122;5.404;2022-11-15T01:31:56;100935.97;;;6.62;100.00
71974;BME280;59840;52.122;5.404;2022-11-15T01:34:22;100932.94;;;6.65;100.00
71974;BME280;59840;52.122;5.404;2022-11-15T01:36:49;100924.84;;;6.67;100.00
71974;BME280;59840;52.122;5.404;2022-11-15T01:39:15;100922.81;;;6.69;100.00
71974;BME280;59840;52.122;5.404;2022-11-15T01:41:42;100927.63;;;6.72;100.00
71974;BME280;59840;52.122;5.404;2022-11-15T01:47:09;100927.78;;;6.77;100.00
71974;BME280;59840;52.122;5.404;2022-11-15T01:49:39;100929.16;;;6.80;100.00
71974;BME280;59840;52.122;5.404;2022-11-15T01:52:13;100922.69;;;6.82;100.00
71974;BME280;59840;52.122;5.404;2022-11-15T01:54:42;100909.38;;;6.84;100.00
71974;BME280;59840;52.122;5.404;2022-11-15T01:57:10;100919.44;;;6.87;100.00
71974;BME280;59840;52.122;5.404;2022-11-15T01:59:40;100907.69;;;6.89;100.00
71974;BME280;59840;52.122;5.404;2022-11-15T02:02:08;100906.47;;;6.92;100.00
71974;BME280;59840;52.122;5.404;2022-11-15T02:04:41;100915.69;;;6.94;100.00
71974;BME280;59840;52.122;5.404;2022-11-15T02:07:09;100919.25;;;7.00;100.00
71974;BME280;59840;52.122;5.404;2022-11-15T02:09:37;100918.25;;;7.01;100.00
71974;BME280;59840;52.122;5.404;2022-11-15T02:12:05;100903.09;;;7.03;100.00
71974;BME280;59840;52.122;5.404;2022-11-15T02:14:33;100902.66;;;7.06;100.00
71974;BME280;59840;52.122;5.404;2022-11-15T02:35:29;100874.84;;;7.35;100.00
71974;BME280;59840;52.122;5.404;2022-11-15T02:37:58;100866.75;;;7.36;100.00
71974;BME280;59840;52.122;5.404;2022-11-15T02:40:38;100868.72;;;7.41;100.00
71974;BME280;59840;52.122;5.404;2022-11-15T02:43:17;100854.91;;;7.46;100.00
71974;BME280;59840;52.122;5.404;2022-11-15T02:46:17;100855.50;;;7.48;100.00
71974;BME280;59840;52.122;5.404;2022-11-15T02:48:48;100857.91;;;7.49;100.00
71974;BME280;59840;52.122;5.404;2022-11-15T02:51:15;100847.97;;;7.51;100.00
71974;BME280;59840;52.122;5.404;2022-11-15T02:53:42;100848.34;;;7.55;100.00
71974;BME280;59840;52.122;5.404;2022-11-15T02:56:11;100843.44;;;7.58;100.00
71974;BME280;59840;52.122;5.404;2022-11-15T03:03:59;100829.75;;;7.68;100.00
71974;BME280;59840;52.122;5.404;2022-11-15T03:06:57;100828.72;;;7.69;100.00
71974;BME280;59840;52.122;5.404;2022-11-15T03:09:49;100825.06;;;7.70;100.00
71974;BME280;59840;52.122;5.404;2022-11-15T03:12:41;100831.47;;;7.74;100.00
71974;BME280;59840;52.122;5.404;2022-11-15T03:15:22;100834.47;;;7.78;100.00
71974;BME280;59840;52.122;5.404;2022-11-15T03:18:45;100839.25;;;7.81;100.00
71974;BME280;59840;52.122;5.404;2022-11-15T03:21:05;100829.56;;;7.81;100.00
71974;BME280;59840;52.122;5.404;2022-11-15T03:23:33;100832.53;;;7.85;100.00
71974;BME280;59840;52.122;5.404;2022-11-15T03:26:06;100828.44;;;7.89;100.00
71974;BME280;59840;52.122;5.404;2022-11-15T03:28:39;100839.28;;;7.92;100.00
71974;BME280;59840;52.122;5.404;2022-11-15T03:31:08;100845.69;;;7.96;100.00
71974;BME280;59840;52.122;5.404;2022-11-15T03:33:57;100839.97;;;7.99;100.00
71974;BME280;59840;52.122;5.404;2022-11-15T03:36:26;100840.31;;;8.03;100.00
71974;BME280;59840;52.122;5.404;2022-11-15T03:38:54;100836.22;;;8.07;100.00
71974;BME280;59840;52.122;5.404;2022-11-15T03:41:51;100839.41;;;8.09;100.00
71974;BME280;59840;52.122;5.404;2022-11-15T03:47:45;100832.00;;;8.18;100.00
71974;BME280;59840;52.122;5.404;2022-11-15T03:50:19;100834.16;;;8.21;100.00
71974;BME280;59840;52.122;5.404;2022-11-15T03:52:47;100836.13;;;8.25;100.00
71974;BME280;59840;52.122;5.404;2022-11-15T03:55:19;100837.25;;;8.29;100.00
71974;BME280;59840;52.122;5.404;2022-11-15T03:57:50;100831.31;;;8.34;100.00
71974;BME280;59840;52.122;5.404;2022-11-15T04:00:18;100838.53;;;8.38;100.00
71974;BME280;59840;52.122;5.404;2022-11-15T04:02:44;100828.34;;;8.42;100.00
71974;BME280;59840;52.122;5.404;2022-11-15T04:05:11;100817.38;;;8.45;100.00
71974;BME280;59840;52.122;5.404;2022-11-15T04:07:37;100822.19;;;8.48;100.00
71974;BME280;59840;52.122;5.404;2022-11-15T04:10:05;100824.34;;;8.51;100.00
71974;BME280;59840;52.122;5.404;2022-11-15T04:12:34;100828.13;;;8.55;100.00
71974;BME280;59840;52.122;5.404;2022-11-15T04:15:16;100831.09;;;8.59;100.00
71974;BME280;59840;52.122;5.404;2022-11-15T04:17:48;100821.94;;;8.61;100.00
71974;BME280;59840;52.122;5.404;2022-11-15T04:20:26;100822.97;;;8.60;100.00
71974;BME280;59840;52.122;5.404;2022-11-15T04:23:14;100818.28;;;8.62;100.00
71974;BME280;59840;52.122;5.404;2022-11-15T04:26:05;100822.03;;;8.66;100.00
71974;BME280;59840;52.122;5.404;2022-11-15T04:28:33;100811.03;;;8.69;100.00
71974;BME280;59840;52.122;5.404;2022-11-15T04:31:00;100806.59;;;8.70;100.00
71974;BME280;59840;52.122;5.404;2022-11-15T04:33:26;100816.06;;;8.71;100.00
71974;BME280;59840;52.122;5.404;2022-11-15T04:35:53;100809.78;;;8.72;100.00
71974;BME280;59840;52.122;5.404;2022-11-15T04:38:38;100813.56;;;8.76;100.00
71974;BME280;59840;52.122;5.404;2022-11-15T04:41:04;100810.69;;;8.78;100.00
71974;BME280;59840;52.122;5.404;2022-11-15T04:43:31;100804.97;;;8.81;100.00
71974;BME280;59840;52.122;5.404;2022-11-15T04:45:58;100812.28;;;8.79;100.00
71974;BME280;59840;52.122;5.404;2022-11-15T04:48:24;100804.72;;;8.82;100.00
71974;BME280;59840;52.122;5.404;2022-11-15T04:50:51;100803.38;;;8.80;100.00
71974;BME280;59840;52.122;5.404;2022-11-15T04:53:17;100810.22;;;8.81;100.00
71974;BME280;59840;52.122;5.404;2022-11-15T04:55:45;100808.16;;;8.83;100.00
71974;BME280;59840;52.122;5.404;2022-11-15T04:58:12;100799.25;;;8.84;100.00
71974;BME280;59840;52.122;5.404;2022-11-15T05:00:38;100804.28;;;8.85;100.00
71974;BME280;59840;52.122;5.404;2022-11-15T05:03:06;100810.91;;;8.88;100.00
71974;BME280;59840;52.122;5.404;2022-11-15T05:05:51;100813.53;;;8.88;100.00
71974;BME280;59840;52.122;5.404;2022-11-15T05:08:17;100814.34;;;8.88;100.00
71974;BME280;59840;52.122;5.404;2022-11-15T05:10:44;100810.44;;;8.91;100.00
71974;BME280;59840;52.122;5.404;2022-11-15T05:13:11;100804.13;;;8.92;100.00
71974;BME280;59840;52.122;5.404;2022-11-15T05:15:37;100812.59;;;8.94;100.00
71974;BME280;59840;52.122;5.404;2022-11-15T05:18:04;100819.22;;;8.96;100.00
71974;BME280;59840;52.122;5.404;2022-11-15T05:20:30;100820.03;;;8.97;100.00
71974;BME280;59840;52.122;5.404;2022-11-15T05:22:57;100825.28;;;8.97;100.00
71974;BME280;59840;52.122;5.404;2022-11-15T05:25:23;100822.09;;;8.95;100.00
71974;BME280;59840;52.122;5.404;2022-11-15T05:27:49;100822.91;;;8.95;100.00
71974;BME280;59840;52.122;5.404;2022-11-15T05:30:16;100823.13;;;8.94;100.00
71974;BME280;59840;52.122;5.404;2022-11-15T05:32:43;100821.06;;;8.96;100.00
71974;BME280;59840;52.122;5.404;2022-11-15T05:35:18;100822.44;;;8.98;100.00
71974;BME280;59840;52.122;5.404;2022-11-15T05:37:46;100823.78;;;9.01;100.00
71974;BME280;59840;52.122;5.404;2022-11-15T05:40:13;100822.72;;;9.02;100.00
71974;BME280;59840;52.122;5.404;2022-11-15T05:42:39;100826.97;;;9.03;100.00
71974;BME280;59840;52.122;5.404;2022-11-15T05:45:08;100822.59;;;9.08;100.00
71974;BME280;59840;52.122;5.404;2022-11-15T05:47:36;100823.97;;;9.11;100.00
71974;BME280;59840;52.122;5.404;2022-11-15T05:50:04;100828.31;;;9.17;100.00
71974;BME280;59840;52.122;5.404;2022-11-15T05:52:33;100826.22;;;9.19;100.00
71974;BME280;59840;52.122;5.404;2022-11-15T05:55:01;100836.31;;;9.22;100.00
71974;BME280;59840;52.122;5.404;2022-11-15T05:57:29;100837.44;;;9.26;100.00
71974;BME280;59840;52.122;5.404;2022-11-15T05:59:55;100843.03;;;9.30;100.00
71974;BME280;59840;52.122;5.404;2022-11-15T06:02:22;100836.72;;;9.31;100.00
71974;BME280;59840;52.122;5.404;2022-11-15T06:04:48;100840.72;;;9.33;100.00
71974;BME280;59840;52.122;5.404;2022-11-15T06:07:15;100829.69;;;9.36;100.00
71974;BME280;59840;52.122;5.404;2022-11-15T06:09:42;100832.41;;;9.41;100.00
71974;BME280;59840;52.122;5.404;2022-11-15T06:12:08;100842.50;;;9.45;100.00
71974;BME280;59840;52.122;5.404;2022-11-15T06:14:35;100841.44;;;9.46;100.00
71974;BME280;59840;52.122;5.404;2022-11-15T06:17:01;100841.00;;;9.49;100.00
71974;BME280;59840;52.122;5.404;2022-11-15T06:19:36;100839.16;;;9.49;100.00
71974;BME280;59840;52.122;5.404;2022-11-15T06:22:02;100858.72;;;9.53;100.00
71974;BME280;59840;52.122;5.404;2022-11-15T06:24:29;100850.59;;;9.55;100.00
71974;BME280;59840;52.122;5.404;2022-11-15T06:26:55;100849.53;;;9.56;100.00
71974;BME280;59840;52.122;5.404;2022-11-15T06:29:23;100852.97;;;9.56;100.00
71974;BME280;59840;52.122;5.404;2022-11-15T06:31:50;100849.31;;;9.57;100.00
71974;BME280;59840;52.122;5.404;2022-11-15T06:34:17;100855.94;;;9.60;100.00
71974;BME280;59840;52.122;5.404;2022-11-15T06:36:43;100856.97;;;9.59;100.00
71974;BME280;59840;52.122;5.404;2022-11-15T06:39:10;100858.56;;;9.60;100.00
71974;BME280;59840;52.122;5.404;2022-11-15T06:41:36;100849.41;;;9.62;100.00
71974;BME280;59840;52.122;5.404;2022-11-15T06:44:03;100851.00;;;9.63;100.00
71974;BME280;59840;52.122;5.404;2022-11-15T06:46:29;100841.50;;;9.62;100.00
71974;BME280;59840;52.122;5.404;2022-11-15T06:48:56;100849.63;;;9.61;100.00
71974;BME280;59840;52.122;5.404;2022-11-15T06:51:22;100854.66;;;9.62;100.00
71974;BME280;59840;52.122;5.404;2022-11-15T06:53:49;100855.13;;;9.59;100.00
71974;BME280;59840;52.122;5.404;2022-11-15T06:56:15;100864.31;;;9.57;100.00
71974;BME280;59840;52.122;5.404;2022-11-15T06:58:42;100870.16;;;9.59;100.00
71974;BME280;59840;52.122;5.404;2022-11-15T07:01:10;100874.16;;;9.61;100.00
71974;BME280;59840;52.122;5.404;2022-11-15T07:03:39;100877.34;;;9.63;100.00
71974;BME280;59840;52.122;5.404;2022-11-15T07:06:07;100868.16;;;9.66;100.00
71974;BME280;59840;52.122;5.404;2022-11-15T07:08:34;100874.56;;;9.70;100.00
71974;BME280;59840;52.122;5.404;2022-11-15T07:11:03;100875.59;;;9.69;100.00
71974;BME280;59840;52.122;5.404;2022-11-15T07:13:31;100874.81;;;9.68;100.00
71974;BME280;59840;52.122;5.404;2022-11-15T07:16:04;100879.84;;;9.70;100.00
71974;BME280;59840;52.122;5.404;2022-11-15T07:18:33;100880.38;;;9.72;100.00
71974;BME280;59840;52.122;5.404;2022-11-15T07:21:05;100880.94;;;9.74;100.00
71974;BME280;59840;52.122;5.404;2022-11-15T07:23:32;100880.69;;;9.75;100.00
71974;BME280;59840;52.122;5.404;2022-11-15T07:26:00;100882.28;;;9.77;100.00
71974;BME280;59840;52.122;5.404;2022-11-15T07:28:27;100886.53;;;9.78;100.00
71974;BME280;59840;52.122;5.404;2022-11-15T07:30:54;100882.06;;;9.78;100.00
71974;BME280;59840;52.122;5.404;2022-11-15T07:33:21;100875.75;;;9.79;100.00
71974;BME280;59840;52.122;5.404;2022-11-15T07:35:47;100878.97;;;9.81;100.00
71974;BME280;59840;52.122;5.404;2022-11-15T07:38:17;100887.44;;;9.83;100.00
71974;BME280;59840;52.122;5.404;2022-11-15T07:40:46;100890.63;;;9.85;100.00
71974;BME280;59840;52.122;5.404;2022-11-15T07:43:13;100886.94;;;9.86;100.00
71974;BME280;59840;52.122;5.404;2022-11-15T07:45:41;100889.34;;;9.88;100.00
71974;BME280;59840;52.122;5.404;2022-11-15T07:48:09;100881.22;;;9.89;100.00
71974;BME280;59840;52.122;5.404;2022-11-15T07:50:35;100881.22;;;9.89;100.00
71974;BME280;59840;52.122;5.404;2022-11-15T07:53:02;100869.41;;;9.92;100.00
71974;BME280;59840;52.122;5.404;2022-11-15T07:55:28;100869.16;;;9.93;100.00
71974;BME280;59840;52.122;5.404;2022-11-15T07:58:03;100870.75;;;9.94;100.00
71974;BME280;59840;52.122;5.404;2022-11-15T08:00:31;100867.78;;;9.91;100.00
71974;BME280;59840;52.122;5.404;2022-11-15T08:03:05;100872.03;;;9.92;100.00
71974;BME280;59840;52.122;5.404;2022-11-15T08:05:33;100872.91;;;9.97;100.00
71974;BME280;59840;52.122;5.404;2022-11-15T08:08:00;100870.66;;;10.06;100.00
71974;BME280;59840;52.122;5.404;2022-11-15T08:10:28;100869.38;;;10.08;100.00
71974;BME280;59840;52.122;5.404;2022-11-15T08:13:08;100867.88;;;10.13;100.00
71974;BME280;59840;52.122;5.404;2022-11-15T08:15:36;100859.72;;;10.14;100.00
71974;BME280;59840;52.122;5.404;2022-11-15T08:18:09;100864.75;;;10.16;100.00
71974;BME280;59840;52.122;5.404;2022-11-15T08:20:35;100859.81;;;10.19;100.00
71974;BME280;59840;52.122;5.404;2022-11-15T08:23:04;100864.06;;;10.20;100.00
71974;BME280;59840;52.122;5.404;2022-11-15T08:25:32;100865.97;;;10.25;100.00
71974;BME280;59840;52.122;5.404;2022-11-15T08:28:01;100868.69;;;10.30;100.00
71974;BME280;59840;52.122;5.404;2022-11-15T08:30:28;100868.78;;;10.35;100.00
71974;BME280;59840;52.122;5.404;2022-11-15T08:32:57;100861.72;;;10.40;100.00
71974;BME280;59840;52.122;5.404;2022-11-15T08:35:24;100863.06;;;10.43;100.00
71974;BME280;59840;52.122;5.404;2022-11-15T08:37:54;100862.03;;;10.44;100.00
71974;BME280;59840;52.122;5.404;2022-11-15T08:40:21;100854.13;;;10.44;100.00
71974;BME280;59840;52.122;5.404;2022-11-15T08:42:49;100847.56;;;10.47;100.00
71974;BME280;59840;52.122;5.404;2022-11-15T08:45:15;100839.41;;;10.48;100.00
71974;BME280;59840;52.122;5.404;2022-11-15T08:47:42;100843.41;;;10.51;100.00
71974;BME280;59840;52.122;5.404;2022-11-15T08:50:09;100838.13;;;10.51;100.00
71974;BME280;59840;52.122;5.404;2022-11-15T08:52:35;100842.13;;;10.53;100.00
71974;BME280;59840;52.122;5.404;2022-11-15T08:55:02;100830.84;;;10.58;100.00
71974;BME280;59840;52.122;5.404;2022-11-15T08:57:29;100838.03;;;10.62;100.00
71974;BME280;59840;52.122;5.404;2022-11-15T08:59:58;100838.66;;;10.69;100.00
71974;BME280;59840;52.122;5.404;2022-11-15T09:02:25;100837.16;;;10.79;100.00
71974;BME280;59840;52.122;5.404;2022-11-15T09:04:51;100830.66;;;10.86;100.00
71974;BME280;59840;52.122;5.404;2022-11-15T09:07:18;100840.00;;;10.94;100.00
71974;BME280;59840;52.122;5.404;2022-11-15T09:09:45;100829.50;;;10.99;100.00
71974;BME280;59840;52.122;5.404;2022-11-15T09:12:11;100836.75;;;11.08;100.00
71974;BME280;59840;52.122;5.404;2022-11-15T09:14:38;100838.19;;;11.21;100.00
71974;BME280;59840;52.122;5.404;2022-11-15T09:17:08;100829.16;;;11.44;100.00
71974;BME280;59840;52.122;5.404;2022-11-15T09:19:34;100836.78;;;11.67;100.00
71974;BME280;59840;52.122;5.404;2022-11-15T09:22:01;100830.03;;;11.82;99.16
71974;BME280;59840;52.122;5.404;2022-11-15T09:24:27;100821.56;;;11.80;98.18
71974;BME280;59840;52.122;5.404;2022-11-15T09:26:54;100828.66;;;11.74;97.63
71974;BME280;59840;52.122;5.404;2022-11-15T09:29:20;100827.47;;;11.60;97.29
71974;BME280;59840;52.122;5.404;2022-11-15T09:31:47;100823.78;;;11.61;96.96
71974;BME280;59840;52.122;5.404;2022-11-15T09:34:13;100824.88;;;11.65;96.69
71974;BME280;59840;52.122;5.404;2022-11-15T09:36:40;100819.84;;;11.63;95.88
71974;BME280;59840;52.122;5.404;2022-11-15T09:39:07;100816.84;;;11.55;95.25
71974;BME280;59840;52.122;5.404;2022-11-15T09:41:50;100810.88;;;11.37;95.08
71974;BME280;59840;52.122;5.404;2022-11-15T09:50:07;100808.53;;;11.41;94.37
71974;BME280;59840;52.122;5.404;2022-11-15T09:52:36;100809.13;;;11.48;93.49
71974;BME280;59840;52.122;5.404;2022-11-15T09:55:05;100808.13;;;11.54;93.10
71974;BME280;59840;52.122;5.404;2022-11-15T09:57:43;100807.72;;;11.67;91.92
71974;BME280;59840;52.122;5.404;2022-11-15T10:00:21;100814.09;;;11.71;91.61
71974;BME280;59840;52.122;5.404;2022-11-15T10:03:12;100813.59;;;11.74;91.61
71974;BME280;59840;52.122;5.404;2022-11-15T10:05:47;100806.66;;;11.68;90.70
71974;BME280;59840;52.122;5.404;2022-11-15T10:11:35;100796.09;;;11.68;90.65
71974;BME280;59840;52.122;5.404;2022-11-15T10:14:25;100793.75;;;11.72;90.80
71974;BME280;59840;52.122;5.404;2022-11-15T10:22:27;100789.59;;;11.81;88.54
71974;BME280;59840;52.122;5.404;2022-11-15T10:27:52;100785.56;;;11.73;88.71
71974;BME280;59840;52.122;5.404;2022-11-15T10:30:19;100786.41;;;11.79;87.59
71974;BME280;59840;52.122;5.404;2022-11-15T10:32:47;100774.53;;;11.82;87.27
71974;BME280;59840;52.122;5.404;2022-11-15T10:35:25;100776.66;;;11.85;87.23
71974;BME280;59840;52.122;5.404;2022-11-15T10:38:08;100775.00;;;11.73;86.88
71974;BME280;59840;52.122;5.404;2022-11-15T10:40:35;100762.09;;;11.77;86.76
71974;BME280;59840;52.122;5.404;2022-11-15T10:43:18;100761.56;;;11.80;87.01
71974;BME280;59840;52.122;5.404;2022-11-15T10:45:46;100759.94;;;11.74;86.46
71974;BME280;59840;52.122;5.404;2022-11-15T10:50:46;100753.84;;;11.73;87.00
71974;BME280;59840;52.122;5.404;2022-11-15T10:53:46;100741.25;;;11.86;87.19
71974;BME280;59840;52.122;5.404;2022-11-15T10:56:14;100735.47;;;11.89;86.22
71974;BME280;59840;52.122;5.404;2022-11-15T10:58:55;100732.84;;;11.94;85.92
71974;BME280;59840;52.122;5.404;2022-11-15T11:01:24;100733.72;;;12.04;84.83
71974;BME280;59840;52.122;5.404;2022-11-15T11:04:05;100727.91;;;12.07;85.19
71974;BME280;59840;52.122;5.404;2022-11-15T11:06:58;100723.16;;;12.15;85.14
71974;BME280;59840;52.122;5.404;2022-11-15T11:09:32;100715.78;;;12.17;84.51
71974;BME280;59840;52.122;5.404;2022-11-15T11:12:00;100716.31;;;12.19;83.74
71974;BME280;59840;52.122;5.404;2022-11-15T11:14:29;100725.03;;;12.19;84.06
71974;BME280;59840;52.122;5.404;2022-11-15T11:19:39;100713.44;;;12.25;84.14
71974;BME280;59840;52.122;5.404;2022-11-15T11:27:19;100707.88;;;12.22;83.94
71974;BME280;59840;52.122;5.404;2022-11-15T11:47:01;100689.56;;;12.10;82.82
71974;BME280;59840;52.122;5.404;2022-11-15T11:49:39;100686.69;;;12.12;81.47
71974;BME280;59840;52.122;5.404;2022-11-15T11:52:17;100689.56;;;12.15;82.19
71974;BME280;59840;52.122;5.404;2022-11-15T11:54:52;100688.81;;;12.20;80.77
71974;BME280;59840;52.122;5.404;2022-11-15T12:00:18;100669.00;;;12.27;81.74
71974;BME280;59840;52.122;5.404;2022-11-15T12:05:46;100644.94;;;12.29;79.88
71974;BME280;59840;52.122;5.404;2022-11-15T12:10:53;100644.69;;;12.35;79.02
71974;BME280;59840;52.122;5.404;2022-11-15T12:13:24;100646.56;;;12.40;78.99
71974;BME280;59840;52.122;5.404;2022-11-15T12:16:08;100647.59;;;12.34;78.60
71974;BME280;59840;52.122;5.404;2022-11-15T12:18:38;100636.97;;;12.24;78.62
71974;BME280;59840;52.122;5.404;2022-11-15T12:24:00;100627.47;;;12.28;78.32
71974;BME280;59840;52.122;5.404;2022-11-15T12:26:38;100618.19;;;12.25;77.44
71974;BME280;59840;52.122;5.404;2022-11-15T12:29:20;100616.34;;;12.21;78.04
71974;BME280;59840;52.122;5.404;2022-11-15T12:31:51;100609.44;;;12.20;77.74
71974;BME280;59840;52.122;5.404;2022-11-15T12:36:45;100611.59;;;12.28;77.16
71974;BME280;59840;52.122;5.404;2022-11-15T12:39:13;100608.44;;;12.36;76.75
71974;BME280;59840;52.122;5.404;2022-11-15T12:59:54;100571.44;;;12.46;76.03
71974;BME280;59840;52.122;5.404;2022-11-15T13:04:54;100549.72;;;12.34;75.68
71974;BME280;59840;52.122;5.404;2022-11-15T13:17:49;100527.19;;;12.21;76.22
71974;BME280;59840;52.122;5.404;2022-11-15T13:22:44;100537.00;;;12.26;76.37
71974;BME280;59840;52.122;5.404;2022-11-15T13:28:20;100525.06;;;12.18;76.94
71974;BME280;59840;52.122;5.404;2022-11-15T13:33:26;100520.31;;;12.05;77.55
71974;BME280;59840;52.122;5.404;2022-11-15T13:36:22;100505.72;;;11.97;76.42
71974;BME280;59840;52.122;5.404;2022-11-15T13:41:29;100507.28;;;11.83;76.96
71974;BME280;59840;52.122;5.404;2022-11-15T13:43:58;100497.47;;;11.73;77.11
71974;BME280;59840;52.122;5.404;2022-11-15T13:46:27;100497.72;;;11.72;77.51
71974;BME280;59840;52.122;5.404;2022-11-15T13:49:02;100489.75;;;11.67;77.45
71974;BME280;59840;52.122;5.404;2022-11-15T13:56:54;100484.16;;;11.53;78.31
71974;BME280;59840;52.122;5.404;2022-11-15T13:59:25;100474.91;;;11.51;78.39
71974;BME280;59840;52.122;5.404;2022-11-15T14:01:53;100473.84;;;11.52;77.87
71974;BME280;59840;52.122;5.404;2022-11-15T14:04:23;100469.88;;;11.49;77.68
71974;BME280;59840;52.122;5.404;2022-11-15T14:06:54;100470.13;;;11.43;78.06
71974;BME280;59840;52.122;5.404;2022-11-15T14:09:37;100465.09;;;11.41;78.11
71974;BME280;59840;52.122;5.404;2022-11-15T14:12:39;100470.09;;;11.37;78.55
71974;BME280;59840;52.122;5.404;2022-11-15T14:15:33;100464.25;;;11.30;78.60
71974;BME280;59840;52.122;5.404;2022-11-15T14:18:00;100456.84;;;11.27;78.31
71974;BME280;59840;52.122;5.404;2022-11-15T14:20:32;100461.59;;;11.25;78.44
71974;BME280;59840;52.122;5.404;2022-11-15T14:23:02;100451.28;;;11.24;78.80
71974;BME280;59840;52.122;5.404;2022-11-15T14:25:30;100442.06;;;11.26;78.66
71974;BME280;59840;52.122;5.404;2022-11-15T14:30:49;100429.66;;;11.27;78.66
71974;BME280;59840;52.122;5.404;2022-11-15T14:33:32;100433.34;;;11.26;79.07
71974;BME280;59840;52.122;5.404;2022-11-15T14:38:32;100421.44;;;11.23;78.29
71974;BME280;59840;52.122;5.404;2022-11-15T14:40:59;100421.69;;;11.22;78.54
71974;BME280;59840;52.122;5.404;2022-11-15T14:43:26;100419.31;;;11.20;78.54
71974;BME280;59840;52.122;5.404;2022-11-15T14:45:53;100417.72;;;11.19;77.98
71974;BME280;59840;52.122;5.404;2022-11-15T14:48:19;100408.75;;;11.20;78.68
71974;BME280;59840;52.122;5.404;2022-11-15T14:50:46;100405.56;;;11.18;78.60
71974;BME280;59840;52.122;5.404;2022-11-15T14:53:17;100405.84;;;11.17;78.60
71974;BME280;59840;52.122;5.404;2022-11-15T14:55:44;100400.81;;;11.15;78.75
71974;BME280;59840;52.122;5.404;2022-11-15T14:58:10;100388.91;;;11.13;78.13
71974;BME280;59840;52.122;5.404;2022-11-15T15:00:39;100393.41;;;11.12;78.27
71974;BME280;59840;52.122;5.404;2022-11-15T15:03:06;100375.16;;;11.11;78.04
71974;BME280;59840;52.122;5.404;2022-11-15T15:05:41;100377.31;;;11.08;78.34
71974;BME280;59840;52.122;5.404;2022-11-15T15:08:08;100368.06;;;11.06;78.41
71974;BME280;59840;52.122;5.404;2022-11-15T15:10:42;100374.66;;;11.03;78.83
71974;BME280;59840;52.122;5.404;2022-11-15T15:13:22;100364.34;;;11.02;78.45
71974;BME280;59840;52.122;5.404;2022-11-15T15:15:50;100360.63;;;10.98;78.76
71974;BME280;59840;52.122;5.404;2022-11-15T15:18:17;100353.75;;;10.97;78.67
71974;BME280;59840;52.122;5.404;2022-11-15T15:20:53;100354.00;;;10.95;77.89
71974;BME280;59840;52.122;5.404;2022-11-15T15:23:20;100355.06;;;10.94;78.24
71974;BME280;59840;52.122;5.404;2022-11-15T15:25:47;100336.06;;;10.92;78.32
71974;BME280;59840;52.122;5.404;2022-11-15T15:28:15;100340.00;;;10.90;77.79